Time;durP1;ratioP1;P1;durP2;ratioP2;P2;SDS_P1;SDS_P2;PMS_P1;PMS_P2;Temp;Humidity;BMP_temperature;BMP_pressure;BME280_temperature;BME280_humidity;BME280_pressure;Samples;Min_cycle;Max_cycle;Signal;HPM_P1;HPM_P2
2022/06/24 00:00:11;;;;;;;2.40;2.20;;;;;;;16.68;71.48;99155.72;1761535;81;20935;-68
2022/06/24 00:02:39;;;;;;;2.62;2.42;;;;;;;16.62;71.87;99153.38;1753827;81;21417;-65
2022/06/24 00:05:09;;;;;;;2.52;2.15;;;;;;;16.60;72.08;99160.83;1751476;81;21251;-67
2022/06/24 00:07:52;;;;;;;2.12;1.92;;;;;;;16.57;72.27;99156.72;1772928;79;20941;-66
2022/06/24 00:10:22;;;;;;;2.35;1.92;;;;;;;16.55;72.42;99152.09;1748428;80;21051;-66
2022/06/24 00:12:50;;;;;;;3.20;2.40;;;;;;;16.54;72.65;99150.43;1774823;80;21061;-65
2022/06/24 00:15:31;;;;;;;2.30;2.02;;;;;;;16.52;72.86;99148.97;1768852;80;20918;-67
2022/06/24 00:18:15;;;;;;;2.50;2.27;;;;;;;16.52;72.98;99149.83;1772168;80;21140;-67
2022/06/24 00:20:46;;;;;;;2.40;2.20;;;;;;;16.53;73.12;99146.60;1753911;80;20933;-68
2022/06/24 00:23:15;;;;;;;4.35;2.08;;;;;;;16.52;73.29;99152.52;1777395;80;21504;-65
2022/06/24 00:25:43;;;;;;;3.58;2.20;;;;;;;16.51;73.36;99154.02;1771010;80;20935;-66
2022/06/24 00:28:11;;;;;;;2.67;2.10;;;;;;;16.48;73.31;99148.57;1774364;78;21602;-68
2022/06/24 00:30:41;;;;;;;4.45;2.52;;;;;;;16.48;73.30;99150.42;1773859;80;21198;-65
2022/06/24 00:33:12;;;;;;;4.45;2.17;;;;;;;16.46;73.25;99149.83;1759122;80;20966;-67
2022/06/24 00:35:42;;;;;;;2.35;2.15;;;;;;;16.40;73.19;99150.70;1759260;80;20961;-66
2022/06/24 00:38:34;;;;;;;2.25;2.12;;;;;;;16.36;73.38;99149.47;1758972;80;21008;-65
2022/06/24 00:41:07;;;;;;;3.52;2.60;;;;;;;16.34;73.48;99143.50;1781024;80;21095;-64
2022/06/24 00:43:39;;;;;;;2.20;2.00;;;;;;;16.32;73.68;99150.41;1758985;80;21756;-66
2022/06/24 00:46:26;;;;;;;2.30;2.10;;;;;;;16.32;73.78;99149.07;1781105;80;20954;-68
2022/06/24 00:48:57;;;;;;;2.15;1.95;;;;;;;16.32;73.75;99153.09;1759196;80;21452;-66
2022/06/24 00:51:33;;;;;;;2.70;2.37;;;;;;;16.28;73.70;99154.58;1781473;80;21002;-66
2022/06/24 00:54:07;;;;;;;3.52;2.20;;;;;;;16.27;73.65;99148.09;1788035;78;21464;-67
2022/06/24 00:56:33;;;;;;;4.55;2.33;;;;;;;16.22;73.36;99147.88;1743394;80;21242;-66
2022/06/24 00:59:05;;;;;;;2.15;1.95;;;;;;;16.14;73.28;99153.53;1759171;80;21001;-68
2022/06/24 01:01:39;;;;;;;3.20;2.58;;;;;;;16.08;73.43;99146.61;1779669;80;20883;-65
2022/06/24 01:04:10;;;;;;;2.50;1.98;;;;;;;16.05;73.80;99155.11;1758364;78;20949;-68
2022/06/24 01:06:40;;;;;;;2.80;1.75;;;;;;;16.05;74.02;99153.77;1759780;80;20909;-67
2022/06/24 01:09:07;;;;;;;4.83;2.35;;;;;;;16.07;74.21;99146.83;1773264;79;21195;-65
2022/06/24 01:11:41;;;;;;;4.95;2.50;;;;;;;16.08;74.26;99149.28;1789802;80;20947;-66
2022/06/24 01:14:08;;;;;;;2.58;2.37;;;;;;;16.08;74.34;99151.17;1772325;80;20918;-65
2022/06/24 01:16:35;;;;;;;3.85;1.92;;;;;;;16.06;74.17;99150.03;1792896;80;20939;-67
2022/06/24 01:19:07;;;;;;;2.20;2.08;;;;;;;16.03;73.94;99153.13;1784663;80;20933;-67
2022/06/24 01:21:47;;;;;;;2.80;1.98;;;;;;;15.99;73.74;99149.24;1772239;80;21323;-67
2022/06/24 01:24:20;;;;;;;4.12;2.30;;;;;;;15.92;73.70;99146.28;1770751;80;21476;-67
2022/06/24 01:26:54;;;;;;;2.50;2.10;;;;;;;15.87;74.04;99148.27;1771667;79;21384;-68
2022/06/24 01:29:21;;;;;;;2.45;2.25;;;;;;;15.86;74.33;99151.97;1777402;80;22148;-68
2022/06/24 01:31:49;;;;;;;2.98;2.30;;;;;;;15.85;74.60;99155.67;1787411;80;20902;-67
2022/06/24 01:34:17;;;;;;;3.42;2.27;;;;;;;15.86;74.83;99153.31;1769527;80;21231;-68
2022/06/24 01:36:44;;;;;;;4.20;2.75;;;;;;;15.85;74.92;99153.00;1781884;80;21431;-67
2022/06/24 01:39:11;;;;;;;4.97;3.00;;;;;;;15.87;75.07;99155.48;1762418;80;21473;-68
2022/06/24 01:41:38;;;;;;;6.60;2.85;;;;;;;15.86;75.08;99153.83;1767748;80;20901;-65
2022/06/24 01:44:05;;;;;;;7.05;2.90;;;;;;;15.87;75.10;99164.88;1774969;79;20893;-67
2022/06/24 01:46:31;;;;;;;4.15;2.42;;;;;;;15.86;75.13;99163.21;1783652;80;21247;-69
2022/06/24 01:48:58;;;;;;;3.60;3.00;;;;;;;15.86;75.23;99164.55;1761710;80;20846;-66
2022/06/24 01:51:25;;;;;;;6.75;3.12;;;;;;;15.87;75.28;99164.36;1766954;80;20929;-67
2022/06/24 01:53:51;;;;;;;7.33;3.08;;;;;;;15.89;75.00;99166.31;1761830;80;20927;-66
2022/06/24 01:56:18;;;;;;;4.10;2.45;;;;;;;15.85;74.90;99166.41;1787607;79;21401;-67
2022/06/24 01:58:45;;;;;;;8.50;3.12;;;;;;;15.81;74.82;99164.37;1783198;79;21789;-68
2022/06/24 02:01:11;;;;;;;4.70;2.55;;;;;;;15.78;74.96;99165.61;1769970;80;20933;-67
2022/06/24 02:03:39;;;;;;;5.47;2.98;;;;;;;15.81;75.17;99168.39;1770190;80;20980;-69
2022/06/24 02:06:10;;;;;;;7.00;3.42;;;;;;;15.80;75.19;99162.20;1761289;80;21057;-65
2022/06/24 02:08:37;;;;;;;4.95;2.85;;;;;;;15.80;75.30;99166.77;1767167;80;21026;-67
2022/06/24 02:13:41;;;;;;;2.83;2.55;;;;;;;15.76;75.53;99162.33;1714041;82;21008;-65
2022/06/24 02:16:07;;;;;;;7.58;2.90;;;;;;;15.79;75.61;99169.13;1756708;80;21493;-68
2022/06/24 02:18:34;;;;;;;4.40;2.98;;;;;;;15.81;75.55;99170.56;1790910;79;21018;-68
2022/06/24 02:21:00;;;;;;;4.67;2.58;;;;;;;15.82;75.53;99165.52;1783429;80;21469;-66
2022/06/24 02:23:27;;;;;;;3.77;2.50;;;;;;;15.81;75.47;99169.22;1779657;79;21153;-66
2022/06/24 02:25:54;;;;;;;8.93;3.22;;;;;;;15.81;75.33;99177.27;1761760;80;20878;-68
2022/06/24 02:28:20;;;;;;;6.60;2.40;;;;;;;15.78;75.08;99169.64;1761514;80;20980;-66
2022/06/24 02:30:47;;;;;;;4.78;3.05;;;;;;;15.78;75.04;99172.83;1761614;80;20969;-67
2022/06/24 02:33:14;;;;;;;4.45;2.87;;;;;;;15.76;74.97;99168.20;1763331;80;20929;-64
2022/06/24 02:35:40;;;;;;;6.70;3.15;;;;;;;15.77;75.03;99177.36;1792820;79;22254;-68
2022/06/24 02:38:07;;;;;;;4.12;3.75;;;;;;;15.78;75.14;99173.66;1778692;80;20980;-68
2022/06/24 02:40:46;;;;;;;8.80;3.77;;;;;;;15.82;75.17;99178.09;1761610;80;21019;-68
2022/06/24 02:43:32;;;;;;;6.60;2.70;;;;;;;15.83;75.20;99181.89;1762792;78;21056;-69
2022/06/24 02:46:03;;;;;;;5.12;2.75;;;;;;;15.86;75.07;99184.16;1761569;80;20925;-66
2022/06/24 02:48:32;;;;;;;6.03;5.22;;;;;;;15.87;74.96;99185.82;1772769;80;21196;-66
2022/06/24 02:51:02;;;;;;;7.33;3.37;;;;;;;15.87;74.72;99184.48;1761659;80;21020;-67
2022/06/24 02:53:30;;;;;;;3.98;3.30;;;;;;;15.90;74.80;99194.76;1785906;80;21318;-65
2022/06/24 02:56:04;;;;;;;4.03;2.70;;;;;;;15.95;74.83;99193.64;1784829;80;20879;-66
2022/06/24 02:58:32;;;;;;;7.25;3.02;;;;;;;16.00;74.57;99192.48;1763760;80;20972;-66
2022/06/24 03:00:59;;;;;;;8.05;3.77;;;;;;;16.06;74.50;99196.98;1772276;80;21236;-67
2022/06/24 03:03:27;;;;;;;6.30;3.72;;;;;;;16.14;74.53;99201.28;1768061;80;20986;-66
2022/06/24 03:05:53;;;;;;;4.60;3.80;;;;;;;16.24;74.58;99196.83;1778694;80;20929;-65
2022/06/24 03:08:23;;;;;;;12.15;8.70;;;;;;;16.37;74.50;99201.59;1745787;80;21120;-65
2022/06/24 03:10:49;;;;;;;6.20;4.10;;;;;;;16.51;74.33;99206.38;1732456;81;21013;-68
2022/06/24 03:13:16;;;;;;;9.48;4.37;;;;;;;16.65;74.02;99202.12;1732395;81;21298;-66
2022/06/24 03:15:43;;;;;;;6.15;4.08;;;;;;;16.81;73.62;99208.01;1755412;81;20978;-66
2022/06/24 03:18:11;;;;;;;11.57;4.45;;;;;;;16.99;73.21;99204.06;1753071;81;20979;-66
2022/06/24 03:20:38;;;;;;;4.25;3.95;;;;;;;17.16;72.84;99203.30;1760879;81;20946;-67
2022/06/24 03:23:05;;;;;;;4.28;3.87;;;;;;;17.38;72.28;99204.26;1732436;81;21005;-66
2022/06/24 03:25:32;;;;;;;7.03;4.25;;;;;;;17.57;71.60;99210.02;1766658;79;21212;-67
2022/06/24 03:28:01;;;;;;;8.18;5.17;;;;;;;17.82;70.96;99215.66;1755329;81;20985;-70
2022/06/24 03:30:27;;;;;;;5.37;4.70;;;;;;;18.05;70.01;99205.56;1732349;81;21413;-68
2022/06/24 03:32:54;;;;;;;8.13;4.75;;;;;;;18.28;69.03;99207.04;1739879;81;20906;-66
2022/06/24 03:35:21;;;;;;;12.05;4.55;;;;;;;18.53;68.26;99207.48;1756709;81;21010;-67
2022/06/24 03:37:48;;;;;;;7.42;4.42;;;;;;;18.76;67.32;99209.75;1740115;81;21130;-65
2022/06/24 03:40:14;;;;;;;13.80;6.53;;;;;;;19.02;66.41;99205.31;1732276;81;20878;-64
2022/06/24 03:42:41;;;;;;;8.50;5.35;;;;;;;19.30;65.60;99212.73;1732586;81;20942;-66
2022/06/24 03:45:09;;;;;;;13.38;5.22;;;;;;;19.73;64.28;99215.67;1753118;81;20895;-68
2022/06/24 03:47:35;;;;;;;9.13;5.10;;;;;;;20.28;62.56;99213.66;1732354;81;21557;-67
2022/06/24 03:50:02;;;;;;;8.50;5.15;;;;;;;20.92;60.74;99215.19;1732277;81;22160;-68
2022/06/24 03:52:28;;;;;;;5.42;4.60;;;;;;;21.51;58.79;99219.70;1732357;81;20883;-69
2022/06/24 03:54:55;;;;;;;9.88;4.42;;;;;;;22.04;57.07;99217.28;1741433;81;20829;-66
2022/06/24 03:57:22;;;;;;;8.85;4.33;;;;;;;22.62;55.24;99218.54;1750793;81;20932;-66
2022/06/24 03:59:48;;;;;;;4.45;4.00;;;;;;;23.10;53.42;99219.08;1741566;81;20883;-67
2022/06/24 04:02:15;;;;;;;5.45;3.83;;;;;;;23.51;51.91;99213.47;1732462;81;21953;-66
2022/06/24 04:04:41;;;;;;;4.47;4.15;;;;;;;23.91;50.96;99221.88;1740952;81;20892;-66
2022/06/24 04:07:08;;;;;;;4.62;4.05;;;;;;;24.41;49.69;99223.52;1733667;79;21038;-67
2022/06/24 04:09:35;;;;;;;7.12;4.22;;;;;;;24.96;48.28;99230.23;1758944;80;20893;-65
2022/06/24 04:12:02;;;;;;;3.92;3.62;;;;;;;25.49;46.85;99227.05;1761441;80;20941;-66
2022/06/24 04:17:14;;;;;;;13.38;4.40;;;;;;;26.50;44.21;99225.47;1769439;80;20966;-65
2022/06/24 04:19:41;;;;;;;6.00;3.83;;;;;;;27.06;42.90;99220.55;1742005;80;20948;-68
2022/06/24 04:22:07;;;;;;;6.53;4.03;;;;;;;27.60;41.64;99219.59;1749106;81;20946;-67
2022/06/24 04:24:34;;;;;;;4.78;3.77;;;;;;;28.08;40.40;99213.09;1741159;80;20891;-65
2022/06/24 04:27:01;;;;;;;6.85;4.20;;;;;;;28.47;39.54;99220.56;1705858;83;21394;-65
2022/06/24 04:29:27;;;;;;;5.10;3.80;;;;;;;28.93;38.53;99219.43;1741313;81;20871;-67
2022/06/24 04:31:54;;;;;;;8.33;3.92;;;;;;;29.31;37.80;99218.86;1727371;82;20981;-66
2022/06/24 04:34:21;;;;;;;4.30;3.83;;;;;;;29.78;36.45;99221.89;1727849;80;21023;-65
2022/06/24 04:36:48;;;;;;;5.72;3.92;;;;;;;30.23;35.79;99218.88;1755006;80;20945;-67
2022/06/24 04:39:14;;;;;;;4.97;4.03;;;;;;;30.67;34.81;99219.62;1736327;80;21271;-66
2022/06/24 04:41:41;;;;;;;5.35;3.42;;;;;;;31.04;34.04;99217.44;1737660;81;20940;-68
2022/06/24 04:44:07;;;;;;;4.80;4.40;;;;;;;31.33;33.41;99218.95;1745797;80;21005;-67
2022/06/24 04:46:34;;;;;;;7.75;5.30;;;;;;;31.71;32.77;99212.77;1715395;81;20878;-66
2022/06/24 04:49:01;;;;;;;4.85;4.33;;;;;;;32.12;32.10;99216.63;1729319;82;20908;-67
2022/06/24 04:51:28;;;;;;;7.05;3.98;;;;;;;32.44;31.38;99218.75;1718931;82;21268;-68
2022/06/24 04:53:54;;;;;;;5.17;3.42;;;;;;;32.71;31.01;99215.22;1719880;82;20912;-66
2022/06/24 04:56:22;;;;;;;4.55;3.58;;;;;;;33.07;30.55;99216.33;1720429;82;21651;-69
2022/06/24 04:58:49;;;;;;;3.87;3.42;;;;;;;33.62;29.95;99216.47;1739541;82;21462;-69
2022/06/24 05:01:15;;;;;;;5.15;3.45;;;;;;;34.29;28.97;99215.76;1728153;82;20933;-68
2022/06/24 05:03:43;;;;;;;8.60;3.62;;;;;;;34.78;28.15;99210.08;1706427;82;21337;-66
2022/06/24 05:06:09;;;;;;;6.65;3.70;;;;;;;35.20;27.39;99215.84;1725801;82;20966;-66
2022/06/24 05:08:36;;;;;;;8.43;3.45;;;;;;;35.53;27.06;99207.58;1731159;82;20967;-67
2022/06/24 05:11:02;;;;;;;3.87;3.37;;;;;;;36.01;26.48;99207.73;1721324;82;21491;-67
2022/06/24 05:13:31;;;;;;;10.45;3.50;;;;;;;36.48;25.90;99211.70;1728703;80;20988;-68
2022/06/24 05:15:58;;;;;;;9.98;5.92;;;;;;;36.91;25.33;99208.87;1717914;82;21236;-67
2022/06/24 05:18:24;;;;;;;6.90;5.15;;;;;;;37.30;25.08;99213.63;1783656;80;20970;-66
2022/06/24 05:20:50;;;;;;;8.00;3.55;;;;;;;37.64;24.29;99207.48;1778954;79;20986;-67
2022/06/24 05:23:17;;;;;;;5.83;3.12;;;;;;;37.97;23.96;99211.34;1780337;80;20965;-68
2022/06/24 05:25:44;;;;;;;9.10;3.55;;;;;;;38.44;23.36;99210.53;1774210;79;21483;-65
2022/06/24 05:28:10;;;;;;;3.87;2.98;;;;;;;38.71;22.73;99216.54;1756875;80;21312;-62
2022/06/24 05:30:37;;;;;;;6.40;3.08;;;;;;;38.94;22.07;99215.28;1779317;80;20923;-63
2022/06/24 05:33:04;;;;;;;10.38;3.37;;;;;;;39.07;21.68;99213.98;1760824;80;20888;-66
2022/06/24 05:35:31;;;;;;;4.70;2.90;;;;;;;39.19;21.65;99212.49;1767471;79;21009;-70
2022/06/24 05:37:57;;;;;;;7.87;3.10;;;;;;;39.28;21.26;99212.48;1753371;80;20942;-65
2022/06/24 05:40:23;;;;;;;4.78;2.65;;;;;;;39.43;21.19;99210.78;1779517;79;21210;-67
2022/06/24 05:42:50;;;;;;;3.27;2.33;;;;;;;39.86;20.54;99211.03;1774948;80;20934;-67
2022/06/24 05:45:17;;;;;;;8.75;2.85;;;;;;;40.37;20.15;99211.51;1752721;80;21348;-67
2022/06/24 05:47:43;;;;;;;4.62;2.47;;;;;;;41.02;19.66;99209.33;1752928;80;21698;-67
2022/06/24 05:50:10;;;;;;;4.37;1.95;;;;;;;41.36;19.08;99205.40;1752840;80;21502;-66
2022/06/24 05:55:22;;;;;;;3.17;1.95;;;;;;;41.83;18.04;99211.13;1767386;79;20972;-68
2022/06/24 05:57:49;;;;;;;2.17;1.95;;;;;;;41.67;17.61;99209.13;1764125;80;20962;-67
2022/06/24 06:00:17;;;;;;;4.45;2.17;;;;;;;41.59;17.66;99211.63;1774760;80;20945;-67
2022/06/24 06:02:43;;;;;;;2.17;1.87;;;;;;;41.66;17.66;99213.72;1770422;80;21532;-66
2022/06/24 06:05:10;;;;;;;1.82;1.70;;;;;;;41.84;17.54;99213.33;1757115;80;21531;-66
2022/06/24 06:07:36;;;;;;;6.50;1.85;;;;;;;42.15;17.39;99208.66;1752860;80;21483;-66
2022/06/24 06:10:04;;;;;;;5.17;2.40;;;;;;;42.38;17.18;99205.63;1751714;81;21430;-67
2022/06/24 06:12:35;;;;;;;3.65;1.90;;;;;;;42.60;17.25;99208.02;1738732;79;21797;-65
2022/06/24 06:15:03;;;;;;;3.87;1.72;;;;;;;42.55;16.76;99211.18;1743079;81;20967;-69
2022/06/24 06:17:30;;;;;;;1.82;1.67;;;;;;;42.51;16.94;99210.30;1766434;79;21107;-68
2022/06/24 06:19:56;;;;;;;2.52;1.62;;;;;;;42.78;16.61;99211.13;1747953;81;21386;-68
2022/06/24 06:22:23;;;;;;;2.10;1.20;;;;;;;43.03;16.23;99211.27;1762740;79;21559;-67
2022/06/24 06:24:49;;;;;;;2.10;1.50;;;;;;;43.10;16.08;99207.72;1759357;81;21037;-67
2022/06/24 06:27:16;;;;;;;2.25;1.32;;;;;;;43.25;15.80;99218.58;1743380;81;21050;-68
2022/06/24 06:29:43;;;;;;;2.45;2.25;;;;;;;43.48;15.54;99213.48;1749403;79;21311;-67
2022/06/24 06:32:09;;;;;;;1.87;1.65;;;;;;;43.56;15.78;99216.51;1760989;81;21031;-71
2022/06/24 06:34:37;;;;;;;3.17;1.92;;;;;;;43.68;15.21;99214.51;1748089;81;20990;-70
2022/06/24 06:37:04;;;;;;;1.72;1.60;;;;;;;43.50;15.33;99215.87;1749808;81;20978;-67
2022/06/24 06:39:31;;;;;;;1.60;1.50;;;;;;;43.59;15.45;99218.52;1745245;81;21055;-69
2022/06/24 06:41:58;;;;;;;1.75;1.65;;;;;;;43.98;15.32;99219.20;1740882;81;22221;-70
2022/06/24 06:44:25;;;;;;;1.30;1.20;;;;;;;44.35;14.51;99210.43;1741561;79;20934;-70
2022/06/24 06:46:51;;;;;;;1.22;1.10;;;;;;;44.31;14.57;99204.81;1759007;80;20946;-69
2022/06/24 06:49:18;;;;;;;2.30;1.40;;;;;;;44.38;14.81;99206.20;1737115;81;20930;-71
2022/06/24 06:51:45;;;;;;;4.37;1.35;;;;;;;44.73;14.26;99199.77;1790094;79;20894;-68
2022/06/24 06:54:11;;;;;;;1.15;1.10;;;;;;;44.85;14.21;99204.93;1754896;81;21243;-70
2022/06/24 06:56:39;;;;;;;1.45;1.25;;;;;;;45.27;13.97;99204.83;1740602;81;20938;-67
2022/06/24 06:59:05;;;;;;;1.72;1.22;;;;;;;45.57;13.46;99201.47;1732445;81;21595;-68
2022/06/24 07:01:32;;;;;;;2.02;1.20;;;;;;;45.44;13.46;99205.16;1759040;81;20950;-75
2022/06/24 07:03:59;;;;;;;3.17;1.42;;;;;;;45.57;13.48;99208.48;1762561;81;20931;-69
2022/06/24 07:06:26;;;;;;;4.47;1.40;;;;;;;45.66;13.18;99201.02;1750567;81;21079;-67
2022/06/24 07:08:53;;;;;;;2.87;1.20;;;;;;;45.65;13.20;99201.65;1750927;79;20937;-68
2022/06/24 07:11:20;;;;;;;2.05;1.30;;;;;;;45.58;12.66;99205.08;1781717;80;21019;-69
2022/06/24 07:13:47;;;;;;;1.50;1.40;;;;;;;45.03;12.83;99204.30;1782621;80;21402;-71
2022/06/24 07:16:15;;;;;;;1.72;1.25;;;;;;;44.90;12.94;99197.52;1770701;80;20978;-68
2022/06/24 07:18:41;;;;;;;1.12;1.02;;;;;;;44.97;13.15;99196.72;1792930;80;21249;-70
2022/06/24 07:21:12;;;;;;;1.30;1.17;;;;;;;45.31;12.69;99195.80;1770633;80;20911;-71
2022/06/24 07:23:40;;;;;;;1.20;1.10;;;;;;;45.48;12.61;99192.68;1776286;80;21084;-70
2022/06/24 07:26:06;;;;;;;1.30;1.12;;;;;;;45.65;12.79;99187.60;1765867;80;21064;-69
2022/06/24 07:28:34;;;;;;;1.17;1.00;;;;;;;45.79;12.17;99181.87;1778724;80;20894;-70
2022/06/24 07:31:00;;;;;;;1.60;1.10;;;;;;;45.69;12.43;99180.53;1782479;80;21137;-68
2022/06/24 07:33:28;;;;;;;1.70;0.90;;;;;;;45.79;12.14;99187.48;1761732;80;21469;-69
2022/06/24 07:35:55;;;;;;;1.27;1.12;;;;;;;45.74;12.00;99187.12;1761908;80;21483;-70
2022/06/24 07:38:21;;;;;;;1.27;1.10;;;;;;;45.44;12.04;99186.90;1783009;80;21539;-68
2022/06/24 07:40:48;;;;;;;3.77;1.30;;;;;;;45.41;12.13;99191.33;1761505;80;20886;-70
2022/06/24 07:43:14;;;;;;;2.27;1.10;;;;;;;45.68;12.09;99184.58;1768659;80;21236;-70
2022/06/24 07:45:41;;;;;;;1.62;0.98;;;;;;;45.70;11.90;99182.15;1793249;80;20961;-69
2022/06/24 07:48:09;;;;;;;2.50;1.25;;;;;;;44.52;12.50;99192.20;1766370;80;21059;-72
2022/06/24 07:50:37;;;;;;;1.72;1.30;;;;;;;42.69;13.60;99191.67;1761532;80;21001;-68
2022/06/24 07:53:03;;;;;;;2.45;1.05;;;;;;;41.26;14.83;99188.72;1761498;80;20929;-71
2022/06/24 07:58:15;;;;;;;1.42;1.02;;;;;;;41.77;14.30;99190.31;1770979;80;20909;-72
2022/06/24 08:00:41;;;;;;;2.47;1.27;;;;;;;42.32;14.33;99185.62;1791375;80;20940;-69
2022/06/24 08:03:09;;;;;;;2.15;1.12;;;;;;;43.29;13.69;99182.98;1769705;80;20983;-72
2022/06/24 08:05:35;;;;;;;1.02;0.93;;;;;;;43.99;12.81;99184.36;1782712;80;20991;-70
2022/06/24 08:08:01;;;;;;;1.42;0.98;;;;;;;43.97;12.52;99186.77;1761671;80;21191;-71
2022/06/24 08:10:29;;;;;;;3.25;1.30;;;;;;;43.46;12.69;99176.69;1752017;80;20963;-69
2022/06/24 08:12:56;;;;;;;3.65;1.32;;;;;;;43.35;12.71;99182.05;1773828;81;20841;-70
2022/06/24 08:15:23;;;;;;;2.45;1.40;;;;;;;43.31;13.05;99184.79;1773688;79;21003;-69
2022/06/24 08:17:50;;;;;;;2.00;1.10;;;;;;;43.41;12.81;99179.84;1773755;79;20998;-71
2022/06/24 08:20:16;;;;;;;1.57;1.22;;;;;;;42.98;13.37;99175.28;1741726;79;21457;-69
2022/06/24 08:22:43;;;;;;;2.65;1.17;;;;;;;42.54;13.42;99170.42;1748041;81;21493;-68
2022/06/24 08:25:09;;;;;;;1.02;0.90;;;;;;;42.47;13.68;99174.55;1745253;81;20938;-69
2022/06/24 08:27:37;;;;;;;1.37;1.27;;;;;;;42.49;13.88;99172.16;1752438;80;20985;-69
2022/06/24 08:30:06;;;;;;;1.65;1.25;;;;;;;42.71;13.83;99173.94;1732523;81;21469;-70
2022/06/24 08:32:33;;;;;;;2.33;1.20;;;;;;;43.02;13.77;99168.50;1732246;81;21781;-68
2022/06/24 08:34:59;;;;;;;1.22;1.20;;;;;;;43.26;13.74;99166.98;1745851;81;20936;-68
2022/06/24 08:37:25;;;;;;;3.05;1.10;;;;;;;42.88;13.71;99171.81;1773758;79;20942;-70
2022/06/24 08:39:52;;;;;;;1.22;1.12;;;;;;;41.85;14.36;99168.84;1734485;81;20899;-68
2022/06/24 08:42:18;;;;;;;2.75;1.15;;;;;;;41.28;15.16;99175.77;1732576;81;20883;-69
2022/06/24 08:44:45;;;;;;;2.08;1.25;;;;;;;41.30;15.13;99167.04;1732343;81;21104;-70
2022/06/24 08:47:14;;;;;;;3.80;2.00;;;;;;;41.54;15.07;99171.50;1732383;81;21489;-69
2022/06/24 08:49:41;;;;;;;3.90;1.10;;;;;;;41.68;15.33;99173.64;1735691;81;21004;-70
2022/06/24 08:52:10;;;;;;;2.77;1.10;;;;;;;42.75;14.53;99171.95;1757447;81;20998;-71
2022/06/24 08:54:38;;;;;;;1.30;1.22;;;;;;;43.84;13.90;99161.75;1732553;81;21503;-67
2022/06/24 08:57:05;;;;;;;1.40;1.20;;;;;;;44.80;12.80;99157.05;1732309;81;21299;-68
2022/06/24 08:59:32;;;;;;;2.47;1.25;;;;;;;44.35;13.05;99162.77;1758838;81;20872;-70
2022/06/24 09:01:59;;;;;;;1.87;1.20;;;;;;;42.60;13.76;99165.48;1734423;81;20855;-68
2022/06/24 09:04:25;;;;;;;1.50;1.22;;;;;;;41.80;14.83;99166.39;1738395;81;20884;-70
2022/06/24 09:06:52;;;;;;;4.33;1.57;;;;;;;42.00;14.43;99156.63;1733816;81;20951;-70
2022/06/24 09:09:24;;;;;;;2.47;1.30;;;;;;;41.44;15.06;99167.20;1732370;81;21288;-70
2022/06/24 09:11:57;;;;;;;2.92;1.30;;;;;;;41.21;15.44;99155.58;1760899;80;21499;-69
2022/06/24 09:14:45;;;;;;;1.30;1.20;;;;;;;41.38;15.53;99162.56;1761398;80;20901;-71
2022/06/24 09:17:12;;;;;;;2.22;1.15;;;;;;;42.36;15.00;99165.50;1761538;80;20902;-71
2022/06/24 09:19:39;;;;;;;1.47;1.17;;;;;;;43.45;14.13;99158.28;1761493;80;20992;-69
2022/06/24 09:22:06;;;;;;;1.05;1.02;;;;;;;43.71;13.78;99152.11;1765367;80;21179;-73
2022/06/24 09:24:45;;;;;;;1.27;1.17;;;;;;;44.38;13.30;99144.52;1779386;79;20956;-68
2022/06/24 09:27:12;;;;;;;1.40;1.27;;;;;;;44.85;12.67;99144.61;1764681;80;20890;-70
2022/06/24 09:29:50;;;;;;;2.47;1.40;;;;;;;44.99;12.72;99144.59;1779359;80;20956;-72
2022/06/24 09:32:17;;;;;;;1.27;1.27;;;;;;;45.50;12.76;99141.11;1758357;80;21393;-71
2022/06/24 09:35:07;;;;;;;1.42;1.20;;;;;;;46.37;11.91;99143.06;1770940;79;21972;-68
2022/06/24 09:37:40;;;;;;;1.30;1.30;;;;;;;46.41;11.89;99138.82;1771176;80;21423;-68
2022/06/24 09:40:27;;;;;;;1.75;1.52;;;;;;;44.96;12.55;99144.00;1782558;80;21013;-69
2022/06/24 09:43:07;;;;;;;5.17;1.32;;;;;;;43.41;13.47;99143.45;1768116;79;20981;-70
2022/06/24 09:45:49;;;;;;;2.62;1.40;;;;;;;42.82;14.05;99142.60;1761452;80;20925;-69
2022/06/24 09:48:34;;;;;;;2.20;1.35;;;;;;;43.51;13.98;99138.50;1761507;80;21198;-68
2022/06/24 09:51:03;;;;;;;1.30;1.20;;;;;;;43.03;13.95;99131.53;1781225;80;20966;-70
2022/06/24 09:53:32;;;;;;;1.42;1.32;;;;;;;42.23;14.67;99136.27;1763585;79;20933;-69
2022/06/24 09:55:59;;;;;;;2.62;1.32;;;;;;;42.47;14.77;99138.20;1761760;80;20933;-69
2022/06/24 09:58:26;;;;;;;2.98;1.40;;;;;;;43.35;14.07;99135.86;1761544;80;20937;-68
2022/06/24 10:00:52;;;;;;;2.08;1.17;;;;;;;44.10;13.42;99129.95;1776876;80;21270;-71
2022/06/24 10:03:19;;;;;;;2.65;1.07;;;;;;;44.46;12.78;99129.28;1768009;79;20905;-68
2022/06/24 10:05:48;;;;;;;1.70;1.25;;;;;;;44.24;13.02;99130.55;1761778;80;20850;-71
2022/06/24 10:08:20;;;;;;;1.82;1.32;;;;;;;43.48;13.42;99130.08;1783629;80;20927;-70
2022/06/24 10:10:54;;;;;;;1.82;1.60;;;;;;;42.46;14.35;99129.02;1761539;80;20869;-70
2022/06/24 10:13:25;;;;;;;1.27;1.17;;;;;;;41.23;15.09;99128.68;1762053;80;21123;-70
2022/06/24 10:15:55;;;;;;;1.47;1.10;;;;;;;39.85;16.22;99133.66;1772776;80;20950;-70
2022/06/24 10:18:27;;;;;;;1.40;1.30;;;;;;;38.55;16.96;99131.83;1771066;79;21523;-67
2022/06/24 10:20:58;;;;;;;2.62;1.65;;;;;;;37.25;18.21;99134.84;1772371;80;20929;-72
2022/06/24 10:23:48;;;;;;;1.22;1.05;;;;;;;36.25;19.60;99119.72;1733389;81;20971;-71
2022/06/24 10:26:28;;;;;;;3.35;1.22;;;;;;;35.52;20.01;99122.98;1782726;80;21125;-68
2022/06/24 10:29:03;;;;;;;1.47;1.20;;;;;;;35.02;20.92;99118.99;1770725;79;20873;-68
2022/06/24 10:31:52;;;;;;;3.42;1.42;;;;;;;34.62;21.15;99122.28;1793167;79;21045;-70
2022/06/24 10:34:29;;;;;;;2.62;1.60;;;;;;;34.30;22.08;99127.67;1769244;80;20921;-68
2022/06/24 10:37:13;;;;;;;2.47;1.50;;;;;;;33.87;22.77;99117.64;1775102;80;20915;-69
2022/06/24 10:39:52;;;;;;;2.05;1.40;;;;;;;33.35;23.37;99129.95;1788272;80;21137;-68
2022/06/24 10:42:21;;;;;;;4.10;1.50;;;;;;;32.79;24.02;99128.23;1778678;80;21000;-68
2022/06/24 10:45:05;;;;;;;2.33;1.20;;;;;;;32.41;24.40;99118.95;1765628;79;20901;-69
2022/06/24 10:47:38;;;;;;;1.50;1.25;;;;;;;32.16;24.62;99116.37;1761600;80;20992;-70
2022/06/24 10:50:13;;;;;;;2.42;1.55;;;;;;;31.93;24.87;99121.15;1761759;80;20981;-70
2022/06/24 10:52:50;;;;;;;3.92;1.70;;;;;;;31.86;25.17;99114.49;1761811;80;21126;-71
2022/06/24 10:55:28;;;;;;;2.50;1.47;;;;;;;31.74;25.28;99110.95;1787759;79;20920;-69
2022/06/24 10:57:56;;;;;;;1.95;1.47;;;;;;;31.62;26.11;99110.20;1770586;80;20873;-70
2022/06/24 11:00:48;;;;;;;2.75;1.40;;;;;;;31.55;26.17;99111.75;1783635;80;20972;-69
2022/06/24 11:03:13;;;;;;;2.27;1.42;;;;;;;31.43;26.26;99116.45;1760828;80;20976;-70
2022/06/24 11:05:45;;;;;;;1.55;1.42;;;;;;;31.26;26.80;99117.70;1761559;80;21152;-70
2022/06/24 11:08:14;;;;;;;1.62;1.40;;;;;;;31.02;26.20;99102.14;1761466;80;20957;-68
2022/06/24 11:10:42;;;;;;;1.47;1.37;;;;;;;30.83;26.27;99098.73;1793089;80;20995;-68
2022/06/24 11:13:10;;;;;;;3.40;1.47;;;;;;;30.76;26.55;99098.36;1770361;79;20981;-68
2022/06/24 11:15:46;;;;;;;1.75;1.32;;;;;;;30.70;26.94;99096.84;1767014;80;21413;-68
2022/06/24 11:18:25;;;;;;;1.47;1.40;;;;;;;30.63;27.23;99106.08;1790428;80;21141;-68
2022/06/24 11:21:01;;;;;;;1.60;1.50;;;;;;;30.53;27.23;99098.32;1759029;80;20997;-68
2022/06/24 11:23:30;;;;;;;1.72;1.60;;;;;;;30.43;27.51;99104.60;1759226;80;20878;-70
2022/06/24 11:26:05;;;;;;;3.87;1.75;;;;;;;30.33;28.01;99099.31;1759213;80;20914;-69
2022/06/24 11:28:35;;;;;;;4.87;1.50;;;;;;;30.31;27.92;99106.49;1759196;80;20941;-69
2022/06/24 11:31:23;;;;;;;3.25;1.50;;;;;;;30.29;27.84;99096.95;1771545;80;21475;-69
2022/06/24 11:34:03;;;;;;;2.00;1.45;;;;;;;30.18;27.68;99105.14;1772942;79;20882;-71
2022/06/24 11:36:31;;;;;;;1.65;1.40;;;;;;;30.03;28.34;99099.43;1759468;80;20897;-70
2022/06/24 11:38:59;;;;;;;4.70;1.45;;;;;;;29.94;28.35;99097.95;1759062;80;20945;-73
2022/06/24 11:41:33;;;;;;;1.95;1.57;;;;;;;29.86;28.38;99104.15;1759059;80;21396;-70
2022/06/24 11:44:00;;;;;;;2.40;1.47;;;;;;;29.80;28.22;99103.20;1759193;80;21220;-68
2022/06/24 11:46:26;;;;;;;3.58;1.57;;;;;;;29.76;28.39;99099.39;1759070;80;21036;-69
2022/06/24 11:49:15;;;;;;;4.87;1.50;;;;;;;29.80;28.57;99088.13;1759247;80;21038;-69
2022/06/24 11:51:44;;;;;;;3.85;1.67;;;;;;;29.91;28.67;99088.97;1758783;80;20939;-68
2022/06/24 11:54:11;;;;;;;3.05;1.75;;;;;;;30.11;28.45;99080.06;1759150;80;20964;-69